Terminal Aerodrome Forecast
Issued by NWS

Current Version | Previous Version | Text Only | Print | Product List | Glossary On
Versions: 1 2 3 4 5 6 7 8 9 10 11 12 13 14
000
FTUS45 KTFX 311700
TAFGTF
TAF
KGTF 311720Z 3118/0118 23007KT P6SM FEW080 SCT200
     FM312200 26009KT P6SM VCTS SCT100CB BKN120
      TEMPO 3123/0101 VRB15G25KT -TSRA BKN080CB
     FM010200 VRB05KT P6SM SCT120 BKN200
     FM010600 VRB03KT P6SM FEW200=

USA.gov is the U.S. government's official web portal to all federal, state and local government web resources and services.